Time;durP1;ratioP1;P1;durP2;ratioP2;P2;SDS_P1;SDS_P2;PMS_P1;PMS_P2;Temp;Humidity;BMP_temperature;BMP_pressure;BME280_temperature;BME280_humidity;BME280_pressure;Samples;Min_cycle;Max_cycle;Signal;HPM_P1;HPM_P2
2021/06/23 06:32:23;;;;;;;4.53;3.22;;;;;;;;;;13023719;22;20015;-85
2021/06/23 06:37:55;;;;;;;6.35;3.90;;;;;;;;;;13026028;22;20039;-86
2021/06/23 06:54:56;;;;;;;5.50;2.90;;;;;;;;;;13020569;22;20098;-87
2021/06/23 07:05:10;;;;;;;4.72;2.63;;;;;;;;;;10574131;27;20464;-85
2021/06/23 07:10:11;;;;;;;4.50;2.17;;;;;;;;;;10551260;28;20056;-84
2021/06/23 07:15:13;;;;;;;5.63;2.47;;;;;;;;;;10548254;28;20105;-81
2021/06/23 07:20:14;;;;;;;6.20;2.20;;;;;;;;;;10561578;28;20370;-81
2021/06/23 07:25:15;;;;;;;5.43;2.15;;;;;;;;;;10560773;28;20116;-83
2021/06/23 07:30:16;;;;;;;4.43;2.22;;;;;;;;;;10559195;28;20073;-82
2021/06/23 07:40:50;;;;;;;;;;;;;;;;;;10561925;28;20028;-79
2021/06/23 07:45:53;;;;;;;9.10;5.15;;;;;;;;;;10561178;28;20346;-80
2021/06/23 07:56:09;;;;;;;8.15;3.63;;;;;;;;;;10561610;28;20024;-81
2021/06/23 08:11:51;;;;;;;8.98;3.25;;;;;;;;;;10557385;28;20087;-81
2021/06/23 08:16:52;;;;;;;5.28;2.70;;;;;;;;;;10523836;28;20115;-83
2021/06/23 08:21:53;;;;;;;5.30;2.22;;;;;;;;;;10523383;28;20029;-81
2021/06/23 08:26:53;;;;;;;10.75;3.35;;;;;;;;;;10525600;28;20028;-81
2021/06/23 08:31:54;;;;;;;5.78;2.65;;;;;;;;;;10529415;28;20089;-81
2021/06/23 08:36:55;;;;;;;8.73;2.85;;;;;;;;;;10529859;28;20040;-81
2021/06/23 08:41:56;;;;;;;5.55;2.30;;;;;;;;;;10529550;28;20375;-80
2021/06/23 08:47:00;;;;;;;6.65;2.72;;;;;;;;;;10527831;28;20028;-81
2021/06/23 08:52:01;;;;;;;6.50;2.80;;;;;;;;;;10525948;28;20478;-81
2021/06/23 08:57:02;;;;;;;5.20;2.97;;;;;;;;;;10531821;28;20092;-81
2021/06/23 09:02:03;;;;;;;8.20;4.22;;;;;;;;;;10544437;28;20020;-81
2021/06/23 09:07:04;;;;;;;8.00;3.65;;;;;;;;;;10540175;28;20017;-81
2021/06/23 09:12:07;;;;;;;8.13;3.42;;;;;;;;;;10528845;28;20029;-80
2021/06/23 09:17:14;;;;;;;5.80;2.53;;;;;;;;;;10526724;28;20424;-79
2021/06/23 09:22:34;;;;;;;6.40;3.30;;;;;;;;;;10521472;28;20032;-80
2021/06/23 09:27:35;;;;;;;7.22;2.80;;;;;;;;;;10517159;28;20496;-80
2021/06/23 09:32:36;;;;;;;6.32;3.55;;;;;;;;;;10514749;28;20060;-82
2021/06/23 09:37:37;;;;;;;8.27;3.10;;;;;;;;;;10512250;28;20068;-79
2021/06/23 09:42:43;;;;;;;6.03;2.67;;;;;;;;;;10514713;28;20078;-80
2021/06/23 09:47:46;;;;;;;6.88;3.28;;;;;;;;;;10513924;28;20055;-79
2021/06/23 09:52:53;;;;;;;8.30;3.10;;;;;;;;;;10513577;28;20034;-84
2021/06/23 09:58:29;;;;;;;6.18;2.75;;;;;;;;;;10506168;28;20024;-81
2021/06/23 10:03:33;;;;;;;4.47;2.17;;;;;;;;;;10488356;28;20047;-80
2021/06/23 10:08:34;;;;;;;3.78;2.42;;;;;;;;;;10516051;28;20052;-80
2021/06/23 10:13:35;;;;;;;5.38;2.88;;;;;;;;;;10523277;28;20020;-82
2021/06/23 10:18:36;;;;;;;7.45;2.80;;;;;;;;;;10515960;28;20086;-79
2021/06/23 10:23:38;;;;;;;6.55;3.50;;;;;;;;;;10508291;28;20135;-81
2021/06/23 10:28:40;;;;;;;7.53;3.42;;;;;;;;;;10514760;28;20043;-81
2021/06/23 10:33:41;;;;;;;5.40;2.60;;;;;;;;;;10508783;28;20085;-79
2021/06/23 10:38:45;;;;;;;4.47;2.47;;;;;;;;;;10515907;28;20048;-82
2021/06/23 10:44:13;;;;;;;7.35;3.38;;;;;;;;;;10512329;28;20023;-80
2021/06/23 10:49:18;;;;;;;6.95;2.30;;;;;;;;;;10487027;28;20487;-82
2021/06/23 10:54:31;;;;;;;4.82;2.45;;;;;;;;;;10524793;28;20024;-83
2021/06/23 10:59:36;;;;;;;6.72;3.08;;;;;;;;;;10522183;28;20070;-82
2021/06/23 11:04:56;;;;;;;5.18;3.25;;;;;;;;;;10521148;28;20052;-82
2021/06/23 11:10:13;;;;;;;6.80;2.90;;;;;;;;;;10522692;28;20016;-80
2021/06/23 11:15:18;;;;;;;5.28;3.05;;;;;;;;;;10528433;28;20048;-81
2021/06/23 11:20:19;;;;;;;8.68;2.80;;;;;;;;;;10523389;22;20042;-85
2021/06/23 11:25:24;;;;;;;5.20;2.40;;;;;;;;;;10413806;28;20057;-84
2021/06/23 11:30:25;;;;;;;6.45;3.10;;;;;;;;;;10427015;28;20037;-85
2021/06/23 11:35:26;;;;;;;7.72;3.10;;;;;;;;;;10458338;28;20029;-84
2021/06/23 11:40:27;;;;;;;6.10;3.40;;;;;;;;;;10461518;28;20033;-85
2021/06/23 11:45:28;;;;;;;5.10;2.72;;;;;;;;;;10459993;28;20033;-85
2021/06/23 11:50:45;;;;;;;8.90;3.72;;;;;;;;;;10458952;28;20028;-83
2021/06/23 11:55:49;;;;;;;7.53;3.97;;;;;;;;;;10461204;28;20021;-84
2021/06/23 12:00:50;;;;;;;6.55;3.33;;;;;;;;;;10477400;28;20025;-85
2021/06/23 12:05:51;;;;;;;9.50;3.75;;;;;;;;;;10463356;28;20009;-84
2021/06/23 12:10:52;;;;;;;6.57;3.72;;;;;;;;;;10465115;28;20021;-84
2021/06/23 12:15:54;;;;;;;6.55;3.20;;;;;;;;;;10479523;28;20048;-84
2021/06/23 12:21:00;;;;;;;5.97;3.17;;;;;;;;;;10463799;28;20467;-84
2021/06/23 12:26:01;;;;;;;6.35;3.40;;;;;;;;;;10467033;28;20071;-85
2021/06/23 12:31:03;;;;;;;5.85;3.20;;;;;;;;;;10464080;28;20025;-84
2021/06/23 12:36:09;;;;;;;8.32;4.88;;;;;;;;;;10462102;28;20063;-84
2021/06/23 12:41:11;;;;;;;8.50;3.80;;;;;;;;;;10461628;28;20017;-85
2021/06/23 12:46:12;;;;;;;6.95;3.75;;;;;;;;;;10480424;28;20013;-85
2021/06/23 12:51:31;;;;;;;9.82;6.93;;;;;;;;;;10461769;28;20075;-85
2021/06/23 12:56:32;;;;;;;18.75;14.25;;;;;;;;;;10466576;28;20129;-84
2021/06/23 13:01:33;;;;;;;10.30;4.78;;;;;;;;;;10461515;28;20452;-84
2021/06/23 13:06:36;;;;;;;8.48;5.07;;;;;;;;;;10460321;28;20025;-85
2021/06/23 13:11:37;;;;;;;9.50;5.45;;;;;;;;;;10461466;28;20025;-84
2021/06/23 13:16:38;;;;;;;8.27;4.10;;;;;;;;;;10461799;28;20036;-84
2021/06/23 13:21:39;;;;;;;6.55;4.68;;;;;;;;;;10470296;28;20060;-84
2021/06/23 13:26:40;;;;;;;7.65;3.80;;;;;;;;;;10484767;28;20013;-83
2021/06/23 13:31:41;;;;;;;8.52;5.55;;;;;;;;;;10484402;28;20032;-84
2021/06/23 13:36:42;;;;;;;8.18;5.38;;;;;;;;;;10482332;28;20021;-85
2021/06/23 13:41:44;;;;;;;6.22;3.75;;;;;;;;;;10464130;28;20131;-85
2021/06/23 13:47:20;;;;;;;8.77;5.10;;;;;;;;;;10476457;28;20037;-84
2021/06/23 13:52:21;;;;;;;8.07;4.10;;;;;;;;;;10465347;28;20063;-83
2021/06/23 13:57:22;;;;;;;7.75;3.38;;;;;;;;;;10476823;28;20025;-86
2021/06/23 14:02:24;;;;;;;8.73;7.25;;;;;;;;;;10464014;28;20025;-86
2021/06/23 14:07:26;;;;;;;9.82;5.97;;;;;;;;;;10461918;28;20092;-86
2021/06/23 14:13:05;;;;;;;6.68;4.15;;;;;;;;;;10477392;28;20028;-87
2021/06/23 14:29:50;;;;;;;6.55;4.57;;;;;;;;;;10480184;28;20044;-86
2021/06/23 14:35:04;;;;;;;12.52;3.63;;;;;;;;;;10460550;28;20486;-86
2021/06/23 14:46:28;;;;;;;6.65;3.47;;;;;;;;;;10462541;28;20037;-87
2021/06/23 14:57:51;;;;;;;9.65;6.40;;;;;;;;;;10391463;28;20022;-84
2021/06/23 15:03:22;;;;;;;8.13;4.57;;;;;;;;;;10376647;28;20057;-84
2021/06/23 15:08:30;;;;;;;8.95;5.78;;;;;;;;;;10369795;28;20124;-84
2021/06/23 15:13:33;;;;;;;6.57;3.95;;;;;;;;;;10449765;28;20493;-85
2021/06/23 15:18:34;;;;;;;8.85;4.82;;;;;;;;;;10447106;28;20051;-84
2021/06/23 15:23:35;;;;;;;9.05;5.45;;;;;;;;;;10452425;28;20028;-84
2021/06/23 15:28:46;;;;;;;8.05;5.85;;;;;;;;;;10476304;28;20039;-85
2021/06/23 15:33:48;;;;;;;6.60;4.30;;;;;;;;;;10458337;28;20561;-84
2021/06/23 15:38:52;;;;;;;8.23;4.82;;;;;;;;;;10465880;28;20036;-84
2021/06/23 15:43:53;;;;;;;6.45;3.67;;;;;;;;;;10458860;28;20483;-85
2021/06/23 15:48:59;;;;;;;6.70;3.38;;;;;;;;;;10458274;28;20025;-85
2021/06/23 15:59:51;;;;;;;6.07;4.53;;;;;;;;;;10473115;28;20037;-85
2021/06/23 16:04:52;;;;;;;7.15;3.95;;;;;;;;;;10457960;28;20028;-85
2021/06/23 16:09:53;;;;;;;4.30;3.63;;;;;;;;;;10459769;28;20020;-84
2021/06/23 16:14:54;;;;;;;6.68;4.22;;;;;;;;;;10459144;28;20143;-84
2021/06/23 16:19:55;;;;;;;6.85;4.10;;;;;;;;;;10459522;28;20076;-84
2021/06/23 16:25:04;;;;;;;6.53;4.30;;;;;;;;;;10459910;28;20037;-85
2021/06/23 16:30:11;;;;;;;7.70;5.30;;;;;;;;;;10458406;28;20047;-82
2021/06/23 16:35:49;;;;;;;9.13;5.90;;;;;;;;;;10473968;28;20074;-85
2021/06/23 16:41:36;;;;;;;7.40;5.05;;;;;;;;;;10487595;28;20036;-83
2021/06/23 16:47:31;;;;;;;8.70;5.90;;;;;;;;;;10402470;28;20022;-83
2021/06/23 16:53:26;;;;;;;6.60;5.03;;;;;;;;;;10231212;29;20095;-84
2021/06/23 16:58:44;;;;;;;8.57;6.05;;;;;;;;;;10210913;29;20044;-85
2021/06/23 17:09:46;;;;;;;5.97;4.05;;;;;;;;;;10226277;28;20092;-85
2021/06/23 17:15:11;;;;;;;6.97;5.25;;;;;;;;;;10390438;28;20044;-84
2021/06/23 18:17:31;;;;;;;6.50;5.80;;;;;;;;;;10532689;28;20020;-87
2021/06/23 19:19:04;;;;;;;5.95;5.07;;;;;;;;;;10410855;28;20054;-83
